• Join FlightAware (Why Join?)
  • Login
  • US Flag 
07:26PM EDT


 

Airport Tracker/Info


-or-


 

Live Flight TrackerFlight Track Log ✈ UAL407 ✈ 09-Jul-2013 ✈ KDEN - KSEA

Flight Track Log - Related Links

Times and Time Zones

All times are in EDT time to prevent confusion due to time zone crossing. See the UAL407 flight status page for this flight to view local times or setup timezone preferences in your user account.

Time Position Orientation Groundspeed Altitude Reporting Facility
EDT Latitude Longitude Course Direction KTS MPH feet Rate Location/Type
09:43PM 39.8500 -104.7500 281° West 175 201 7,000  Level Denver TRACON
09:44PM 39.8667 -104.8167 288° West 220 253 7,800 1,080 Climbing Denver TRACON
09:45PM 39.8896 -105.0978 276° West  Level FlightAware Approximate
09:45PM 39.9028 -104.8853 304° West 251 289 9,100  Level Denver Center
09:46PM 39.9000 -105.2422 270° West  Level FlightAware Approximate
09:46PM 39.9358 -104.9675 298° West 299 344 10,600  Level Denver Center
09:47PM 39.9123 -105.3858 281° West  Level FlightAware Approximate
09:47PM 39.9447 -105.1150 275° West 336 387 12,700  Level Denver Center
09:48PM 39.9327 -105.5285 281° West  Level FlightAware Approximate
09:48PM 39.9522 -105.2431 274° West 351 404 16,500  Level Denver Center
09:49PM 39.9578 -105.3664 273° West 343 395 19,500 2,100 Climbing Denver Center
09:50PM 39.9653 -105.5156 274° West 384 442 20,900 1,200 Climbing Denver Center
09:51PM 39.9725 -105.6669 274° West 418 481 22,000 1,320 Climbing Denver Center
09:52PM 39.9750 -105.8297 271° West 430 495 23,700 1,320 Climbing Denver Center
09:53PM 39.9778 -105.9847 271° West 430 495 24,800 960 Climbing Denver Center
09:54PM 39.9894 -106.1092 277° West 433 498 25,700 1,020 Climbing Denver Center
09:55PM 40.0739 -106.2667 305° West 440 506 26,900 960 Climbing Denver Center
09:56PM 40.1461 -106.3978 306° West 446 513 27,700 900 Climbing Denver Center
09:57PM 40.2169 -106.5308 305° West 445 512 28,800 960 Climbing Denver Center
09:58PM 40.2867 -106.6586 306° West 449 517 29,800 1,260 Climbing Denver Center
09:59PM 40.3708 -106.8161 305° West 444 511 31,500 1,020 Climbing Denver Center
10:00PM 40.4378 -106.9461 304° West 422 486 32,000 240 Climbing Denver Center
10:01PM 40.5069 -107.0678 307° West 428 493 32,000  Level Denver Center
10:02PM 40.5814 -107.2106 305° West 427 491 32,000  Level Denver Center
10:03PM 40.6444 -107.3342 304° West 427 491 32,000  Level Denver Center
10:04PM 40.7089 -107.4553 305° West 423 487 32,000  Level Denver Center
10:05PM 40.7828 -107.5964 305° West 429 494 32,000  Level Denver Center
10:06PM 40.8569 -107.7394 304° West 425 489 32,000  Level Denver Center
10:07PM 40.9208 -107.8622 305° West 424 488 32,000  Level Denver Center
10:08PM 40.9842 -107.9858 304° West 423 487 32,000 -60 Level Denver Center
10:09PM 41.0583 -108.1275 305° West 419 482 31,900  Descending Denver Center
10:10PM 41.1208 -108.2531 303° West 426 490 32,000  Climbing Denver Center
10:11PM 41.1886 -108.4039 301° West 425 489 32,000  Level Denver Center
10:12PM 41.2286 -108.5422 291° West 420 483 32,000  Level Denver Center
10:13PM 41.2806 -108.7042 293° West 426 490 32,000  Level Denver Center
10:14PM 41.3247 -108.8428 293° West 426 490 32,000  Level Denver Center
10:16PM 41.3694 -108.9831 293° West 424 488 32,000 -60 Level Denver Center
10:17PM 41.4408 -109.2092 293° West 446 513 31,900  Descending Salt Lake Center
10:18PM 41.4881 -109.3475 295° West 434 499 32,000  Climbing Salt Lake Center
10:19PM 41.5389 -109.4842 296° West 429 494 32,000  Level Salt Lake Center
10:20PM 41.6086 -109.6406 301° West 438 504 32,000  Level Salt Lake Center
10:21PM 41.6728 -109.7692 304° West 436 502 32,000  Level Salt Lake Center
10:22PM 41.7492 -109.9211 304° West 439 505 32,000 -60 Level Salt Lake Center
10:23PM 41.8144 -110.0492 304° West 437 503 31,900  Descending Salt Lake Center
10:24PM 41.8911 -110.1994 304° West 437 503 32,000  Climbing Salt Lake Center
10:25PM 41.9561 -110.3300 304° West 438 504 32,000  Level Salt Lake Center
10:26PM 42.0206 -110.4594 304° West 434 499 32,000 -60 Level Salt Lake Center
10:27PM 42.0961 -110.6097 304° West 435 501 31,900  Descending Salt Lake Center
10:28PM 42.1614 -110.7403 304° West 438 504 32,000  Climbing Salt Lake Center
10:29PM 42.2361 -110.8939 303° West 438 504 32,000  Level Salt Lake Center
10:30PM 42.2986 -111.0217 304° West 439 505 32,000  Level Salt Lake Center
10:31PM 42.3656 -111.1583 304° West 438 504 32,000  Level Salt Lake Center
10:32PM 42.4319 -111.2936 304° West 435 501 32,000  Level Salt Lake Center
10:33PM 42.5114 -111.4589 303° West 437 503 32,000  Level Salt Lake Center
10:34PM 42.5775 -111.5944 304° West 435 501 32,000  Level Salt Lake Center
10:35PM 42.6439 -111.7300 304° West 434 499 32,000 -60 Level Salt Lake Center
10:36PM 42.7128 -111.8817 302° West 438 504 31,900  Descending Salt Lake Center
10:37PM 42.7775 -112.0100 305° West 433 498 32,000  Climbing Salt Lake Center
10:38PM 42.8503 -112.1628 303° West 430 495 32,000  Level Salt Lake Center
10:39PM 42.9128 -112.3017 302° West 439 505 32,000  Level Salt Lake Center
10:41PM 42.9767 -112.4336 304° West 438 504 32,000  Level Salt Lake Center
10:42PM 43.0494 -112.5897 303° West 435 501 32,000  Level Salt Lake Center
10:43PM 43.1117 -112.7233 303° West 435 501 32,000  Level Salt Lake Center
10:44PM 43.1822 -112.8794 302° West 433 498 32,000  Level Salt Lake Center
10:45PM 43.2436 -113.0125 302° West 431 496 32,000  Level Salt Lake Center
10:46PM 43.3058 -113.1464 303° West 433 498 32,000  Level Salt Lake Center
10:47PM 43.3769 -113.3039 302° West 434 499 32,000  Level Salt Lake Center
10:48PM 43.4369 -113.4386 302° West 433 498 32,000  Level Salt Lake Center
10:49PM 43.5089 -113.5972 302° West 439 505 32,000  Level Salt Lake Center
10:50PM 43.5689 -113.7308 302° West 432 497 32,000  Level Salt Lake Center
10:51PM 43.6294 -113.8667 302° West 432 497 32,000  Level Salt Lake Center
10:52PM 43.6956 -114.0150 302° West 434 499 32,000  Level Salt Lake Center
10:53PM 43.7667 -114.1747 302° West 434 499 32,000 -60 Level Salt Lake Center
10:54PM 43.8256 -114.3103 301° West 428 493 31,900 -60 Descending Salt Lake Center
10:55PM 43.8944 -114.4672 301° West 426 490 31,900  Level Salt Lake Center
10:56PM 43.9544 -114.6042 301° West 431 496 31,900  Level Salt Lake Center
10:57PM 44.0133 -114.7394 301° West 428 493 32,000  Climbing Salt Lake Center
10:58PM 44.0828 -114.9014 301° West 433 498 32,000  Level Salt Lake Center
10:59PM 44.1422 -115.0408 301° West 437 503 32,000  Level Salt Lake Center
11:00PM 44.2125 -115.2042 301° West 440 506 32,000  Level Salt Lake Center
11:01PM 44.2711 -115.3419 301° West 434 499 32,000  Level Salt Lake Center
11:02PM 44.3406 -115.5058 301° West 439 505 32,000  Level Salt Lake Center
11:03PM 44.3989 -115.6456 300° West 438 504 32,000  Level Salt Lake Center
11:04PM 44.4569 -115.7850 300° West 436 502 32,000  Level Salt Lake Center
11:05PM 44.5253 -115.9461 301° West 435 501 32,000  Level Salt Lake Center
11:06PM 44.5831 -116.0858 300° West 440 506 32,000  Level Salt Lake Center
11:07PM 44.6492 -116.2500 300° West 439 505 32,000  Level Salt Lake Center
11:08PM 44.7064 -116.3903 300° West 436 502 32,000  Level Salt Lake Center
11:09PM 44.7728 -116.5536 300° West 433 498 32,000  Level Salt Lake Center
11:10PM 44.8292 -116.6939 300° West 431 496 32,000  Level Salt Lake Center
11:11PM 44.8661 -116.7864 299° West 428 493 32,000 -120 Level Seattle Center
11:12PM 44.9222 -116.9264 300° West 427 491 31,900 -60 Descending Seattle Center
11:13PM 44.9789 -117.0664 300° West 429 494 31,900 60 Level Seattle Center
11:13PM 45.0067 -117.1372 299° West 431 496 32,000 60 Climbing Salt Lake Center
11:14PM 45.0733 -117.3069 299° West 440 506 32,000  Level Salt Lake Center
11:15PM 45.1297 -117.4506 299° West 437 503 32,000  Level Salt Lake Center
11:16PM 45.1572 -117.5203 299° West 436 502 32,000  Level Seattle Center
11:17PM 45.2156 -117.6700 299° West 436 502 32,000  Level Seattle Center
11:18PM 45.2736 -117.8189 299° West 434 499 32,000  Level Seattle Center
11:19PM 45.3314 -117.9678 299° West 434 499 32,000 -60 Level Seattle Center
11:20PM 45.4036 -118.1069 307° West 437 503 31,900 -60 Descending Seattle Center
11:21PM 45.4897 -118.2733 306° West 437 503 31,900  Level Seattle Center
11:22PM 45.5606 -118.4119 306° West 436 502 32,000  Climbing Seattle Center
11:23PM 45.6322 -118.5525 306° West 438 504 32,000  Level Seattle Center
11:24PM 45.7039 -118.6908 307° West 436 502 32,000  Level Seattle Center
11:25PM 45.7739 -118.8300 306° West 432 497 32,000 -60 Level Seattle Center
11:26PM 45.8439 -118.9681 306° West 432 497 31,900  Descending Seattle Center
11:27PM 45.9139 -119.1064 306° West 431 496 32,000  Climbing Seattle Center
11:28PM 45.9836 -119.2442 306° West 430 495 32,000  Level Seattle Center
11:29PM 46.0525 -119.3833 306° West 429 494 32,000  Level Seattle Center
11:30PM 46.1206 -119.5231 305° West 431 496 32,000  Level Seattle Center
11:31PM 46.1903 -119.6639 306° West 432 497 32,000  Level Seattle Center
11:32PM 46.2583 -119.8025 305° West 427 491 32,000  Level Seattle Center
11:33PM 46.3417 -119.9728 305° West 432 497 32,000 -60 Level Seattle Center
11:34PM 46.4103 -120.1150 305° West 433 498 31,900 -540 Descending Seattle Center
11:35PM 46.4781 -120.2542 305° West 429 494 31,000 -1,440 Descending Seattle Center
11:36PM 46.5442 -120.3944 304° West 424 488 29,000 -2,160 Descending Seattle Center
11:37PM 46.6108 -120.5311 305° West 418 481 26,700 -2,220 Descending Seattle Center
11:38PM 46.6747 -120.6681 304° West 412 474 24,600 -2,160 Descending Seattle Center
11:39PM 46.7386 -120.8008 305° West 404 465 22,400 -2,160 Descending Seattle Center
11:40PM 46.8008 -120.9339 304° West 399 459 20,300 -2,100 Descending Seattle Center
11:41PM 46.8608 -121.0625 304° West 388 447 18,200 -2,040 Descending Seattle Center
11:42PM 46.9197 -121.1886 304° West 373 429 16,200 -2,160 Descending Seattle Center
11:43PM 46.9775 -121.3042 306° West 353 406 14,300 -2,100 Descending Seattle Center
11:44PM 47.0258 -121.4106 304° West 337 388 12,600 -1,200 Descending Seattle Center
11:45PM 47.0733 -121.5144 304° West 307 353 12,000 -360 Descending Seattle Center
11:46PM 47.1242 -121.6231 305° West 295 339 11,900 -900 Descending Seattle Center
11:47PM 47.1633 -121.7383 297° West 289 333 10,200 -2,040 Descending Seattle Center
11:48PM 47.1781 -121.8542 281° West 293 337 7,900 -1,920 Descending Seattle Center
11:49PM 47.2000 -121.9564 288° West 281 323 6,500 -1,560 Descending Seattle Center
11:50PM 47.2264 -122.0592 291° West 271 312 4,900 -1,500 Descending Seattle Center
11:51PM 47.2497 -122.1672 288° West 272 313 3,500 -1,380 Descending Seattle Center